createdAt,value
2024-02-10T00:00:57.447Z,38.80
2024-02-10T00:03:47.315Z,39.20
2024-02-10T00:06:19.442Z,44.80
2024-02-10T00:08:51.471Z,42.20
2024-02-10T00:11:23.810Z,45.20
2024-02-10T00:13:56.240Z,46.30
2024-02-10T00:16:29.759Z,43.10
2024-02-10T00:19:09.571Z,40.00
2024-02-10T00:21:42.764Z,45.90
2024-02-10T00:24:14.839Z,42.90
2024-02-10T00:26:47.710Z,44.10
2024-02-10T00:29:38.705Z,48.00
2024-02-10T00:32:11.444Z,44.90
2024-02-10T00:34:43.751Z,44.40
2024-02-10T00:37:18.081Z,42.60
2024-02-10T00:39:49.991Z,43.80
2024-02-10T00:42:25.341Z,41.00
2024-02-10T00:44:57.618Z,42.30
2024-02-10T00:47:31.086Z,43.30
2024-02-10T00:50:04.411Z,44.80
2024-02-10T00:52:36.705Z,44.50
2024-02-10T00:55:08.985Z,45.40
2024-02-10T00:57:45.774Z,43.90
2024-02-10T01:00:19.228Z,40.40
2024-02-10T01:02:52.241Z,44.30
2024-02-10T01:05:24.307Z,44.20
2024-02-10T01:08:01.160Z,43.40
2024-02-10T01:10:34.362Z,44.00
2024-02-10T01:13:06.991Z,47.00
2024-02-10T01:15:40.003Z,47.80
2024-02-10T01:18:14.129Z,44.60
2024-02-10T01:20:46.332Z,45.90
2024-02-10T01:23:18.368Z,48.50
2024-02-10T01:25:56.302Z,49.30
2024-02-10T01:28:29.201Z,48.70
2024-02-10T01:31:01.200Z,49.20
2024-02-10T01:33:33.143Z,49.50
2024-02-10T01:36:07.877Z,59.70
2024-02-10T01:38:44.431Z,45.50
2024-02-10T01:41:17.176Z,44.80
2024-02-10T01:43:52.396Z,45.40
2024-02-10T01:46:25.801Z,41.30
2024-02-10T01:48:57.807Z,39.60
2024-02-10T01:51:30.133Z,39.20
2024-02-10T01:54:04.598Z,41.60
2024-02-10T01:56:40.827Z,39.90
2024-02-10T01:59:14.560Z,39.90
2024-02-10T02:01:49.941Z,40.50
2024-02-10T02:04:24.265Z,40.70
2024-02-10T02:06:58.493Z,43.30
2024-02-10T02:09:30.657Z,38.90
2024-02-10T02:12:08.987Z,38.60
2024-02-10T02:14:43.053Z,39.20
2024-02-10T02:17:15.077Z,39.90
2024-02-10T02:19:47.621Z,40.30
2024-02-10T02:22:19.859Z,38.80
2024-02-10T02:24:54.296Z,46.30
2024-02-10T02:27:26.292Z,45.20
2024-02-10T02:29:58.720Z,45.20
2024-02-10T02:32:30.832Z,50.40
2024-02-10T02:35:10.195Z,45.30
2024-02-10T02:37:43.158Z,44.30
2024-02-10T02:40:19.407Z,45.80
2024-02-10T02:42:51.753Z,46.50
2024-02-10T02:45:23.748Z,42.30
2024-02-10T02:47:58.123Z,43.40
2024-02-10T02:50:30.251Z,42.90
2024-02-10T02:53:03.475Z,40.20
2024-02-10T02:55:35.523Z,45.60
2024-02-10T02:58:10.766Z,44.50
2024-02-10T03:00:43.289Z,42.70
2024-02-10T03:03:15.669Z,42.20
2024-02-10T03:05:47.702Z,39.60
2024-02-10T03:08:19.713Z,40.50
2024-02-10T03:10:52.053Z,40.20
2024-02-10T03:13:25.940Z,38.60
2024-02-10T03:15:58.157Z,41.10
2024-02-10T03:18:30.198Z,40.50
2024-02-10T03:21:02.374Z,43.00
2024-02-10T03:23:35.019Z,49.10
2024-02-10T03:26:07.208Z,51.80
2024-02-10T03:28:40.107Z,49.60
2024-02-10T03:31:12.718Z,46.90
2024-02-10T03:33:44.821Z,42.10
2024-02-10T03:36:16.851Z,42.10
2024-02-10T03:38:48.767Z,40.20
2024-02-10T03:41:20.758Z,39.60
2024-02-10T03:43:52.780Z,39.20
2024-02-10T03:46:25.010Z,36.90
2024-02-10T03:49:00.404Z,37.80
2024-02-10T03:51:33.103Z,39.30
2024-02-10T03:54:07.016Z,38.40
2024-02-10T03:56:39.264Z,37.10
2024-02-10T03:59:11.237Z,37.50
2024-02-10T04:01:44.354Z,38.80
2024-02-10T04:04:16.516Z,41.50
2024-02-10T04:06:48.738Z,39.90
2024-02-10T04:09:22.160Z,39.40
2024-02-10T04:11:54.356Z,39.50
2024-02-10T04:14:26.387Z,40.90
2024-02-10T04:16:58.503Z,37.90
2024-02-10T04:19:31.943Z,40.70
2024-02-10T04:22:07.879Z,38.20
2024-02-10T04:24:40.143Z,37.50
2024-02-10T04:27:12.097Z,36.30
2024-02-10T04:29:44.641Z,38.30
2024-02-10T04:32:16.632Z,42.50
2024-02-10T04:34:48.681Z,42.20
2024-02-10T04:37:21.546Z,41.60
2024-02-10T04:39:53.883Z,38.10
2024-02-10T04:42:25.766Z,38.10
2024-02-10T04:45:00.825Z,36.70
2024-02-10T04:47:36.241Z,41.10
2024-02-10T04:50:09.607Z,40.40
2024-02-10T04:52:41.650Z,38.00
2024-02-10T04:55:17.132Z,36.90
2024-02-10T04:57:49.588Z,37.90
2024-02-10T05:00:24.494Z,35.20
2024-02-10T05:02:56.964Z,36.50
2024-02-10T05:05:29.021Z,35.20
2024-02-10T05:08:01.036Z,39.50
2024-02-10T05:10:33.306Z,38.20
2024-02-10T05:13:05.452Z,41.20
2024-02-10T05:15:37.475Z,40.10
2024-02-10T05:18:10.527Z,44.00
2024-02-10T05:20:45.182Z,41.80
2024-02-10T05:23:18.055Z,43.00
2024-02-10T05:25:50.011Z,39.20
2024-02-10T05:28:27.280Z,44.30
2024-02-10T05:31:00.748Z,42.30
2024-02-10T05:33:32.850Z,39.40
2024-02-10T05:36:04.911Z,35.90
2024-02-10T05:38:37.153Z,34.30
2024-02-10T05:41:09.392Z,37.30
2024-02-10T05:43:41.336Z,39.00
2024-02-10T05:46:14.822Z,35.90
2024-02-10T05:48:47.190Z,35.20
2024-02-10T05:51:19.167Z,33.60
2024-02-10T05:53:53.837Z,36.10
2024-02-10T05:56:31.164Z,34.30
2024-02-10T05:59:05.180Z,32.90
2024-02-10T06:01:37.557Z,35.00
2024-02-10T06:04:11.106Z,37.00
2024-02-10T06:06:46.617Z,35.30
2024-02-10T06:09:18.847Z,34.30
2024-02-10T06:11:53.383Z,35.60
2024-02-10T06:14:27.211Z,38.80
2024-02-10T06:17:00.901Z,36.00
2024-02-10T06:19:33.059Z,34.40
2024-02-10T06:22:08.098Z,35.80
2024-02-10T06:24:45.423Z,35.20
2024-02-10T06:27:21.455Z,35.80
2024-02-10T06:29:55.619Z,34.60
2024-02-10T06:32:27.709Z,37.50
2024-02-10T06:34:59.769Z,38.50
2024-02-10T06:37:33.549Z,39.50
2024-02-10T06:40:06.344Z,44.50
2024-02-10T06:42:39.041Z,44.70
2024-02-10T06:45:15.108Z,41.20
2024-02-10T06:47:48.271Z,38.00
2024-02-10T06:50:25.750Z,41.00
2024-02-10T06:53:01.855Z,37.80
2024-02-10T06:55:35.122Z,39.10
2024-02-10T06:58:07.543Z,39.20
2024-02-10T07:00:42.553Z,41.40
2024-02-10T07:03:19.353Z,39.90
2024-02-10T07:05:54.321Z,35.90
2024-02-10T07:08:26.714Z,32.60
2024-02-10T07:11:00.104Z,33.10
2024-02-10T07:13:32.865Z,33.10
2024-02-10T07:16:07.112Z,32.80
2024-02-10T07:18:40.260Z,31.60
2024-02-10T07:21:12.830Z,30.50
2024-02-10T07:23:45.550Z,30.20
2024-02-10T07:26:21.780Z,31.50
2024-02-10T07:28:55.059Z,33.90
2024-02-10T07:31:27.839Z,33.40
2024-02-10T07:34:00.463Z,32.60
2024-02-10T07:36:36.551Z,34.20
2024-02-10T07:39:09.367Z,32.80
2024-02-10T07:41:42.079Z,33.70
2024-02-10T07:44:14.771Z,32.90
2024-02-10T07:46:46.779Z,33.40
2024-02-10T07:49:20.905Z,38.40
2024-02-10T07:51:54.387Z,40.00
2024-02-10T07:54:26.268Z,38.60
2024-02-10T07:56:58.363Z,36.00
2024-02-10T07:59:30.475Z,36.10
2024-02-10T08:02:02.553Z,36.10
2024-02-10T08:04:34.765Z,32.90
2024-02-10T08:07:08.419Z,38.60
2024-02-10T08:09:40.528Z,38.40
2024-02-10T08:12:14.901Z,37.70
2024-02-10T08:14:48.725Z,31.00
2024-02-10T08:17:22.343Z,27.80
2024-02-10T08:19:58.360Z,32.20
2024-02-10T08:22:35.030Z,25.00
2024-02-10T08:25:08.882Z,23.00
2024-02-10T08:27:42.191Z,21.00
2024-02-10T08:30:18.017Z,20.30
2024-02-10T08:32:50.188Z,21.50
2024-02-10T08:35:22.286Z,19.50
2024-02-10T08:37:54.309Z,20.50
2024-02-10T08:40:26.313Z,20.10
2024-02-10T08:43:00.528Z,19.60
2024-02-10T08:45:32.464Z,20.80
2024-02-10T08:48:06.449Z,20.50
2024-02-10T08:50:42.509Z,20.50
2024-02-10T08:55:49.134Z,21.10
2024-02-10T08:58:24.076Z,20.20
2024-02-10T09:00:59.099Z,19.40
2024-02-10T09:03:32.812Z,20.80
2024-02-10T09:06:05.144Z,19.50
2024-02-10T09:08:39.053Z,17.90
2024-02-10T09:11:11.129Z,18.10
2024-02-10T09:13:46.241Z,17.50
2024-02-10T09:16:18.693Z,17.60
2024-02-10T09:18:50.674Z,18.50
2024-02-10T09:21:23.387Z,17.30
2024-02-10T09:23:59.739Z,16.90
2024-02-10T09:26:31.897Z,17.50
2024-02-10T09:29:04.072Z,16.70
2024-02-10T09:31:36.714Z,18.60
2024-02-10T09:34:08.995Z,19.20
2024-02-10T09:36:43.893Z,18.40
2024-02-10T09:39:17.286Z,17.70
2024-02-10T09:41:53.938Z,17.60
2024-02-10T09:44:25.885Z,18.10
2024-02-10T09:47:01.973Z,16.10
2024-02-10T09:49:36.697Z,17.00
2024-02-10T09:52:08.975Z,16.10
2024-02-10T09:54:41.658Z,16.60
2024-02-10T09:57:15.862Z,15.10
2024-02-10T09:59:47.886Z,15.80
2024-02-10T10:02:20.558Z,15.10
2024-02-10T10:04:52.459Z,15.60
2024-02-10T10:07:26.118Z,14.80
2024-02-10T10:09:58.417Z,15.20
2024-02-10T10:12:30.441Z,15.60
2024-02-10T10:15:02.382Z,13.80
2024-02-10T10:17:39.349Z,24.00
2024-02-10T10:20:12.489Z,14.50
2024-02-10T10:22:44.625Z,47.30
2024-02-10T10:25:17.185Z,26.40
2024-02-10T10:27:50.036Z,15.20
2024-02-10T10:30:24.209Z,12.30
2024-02-10T10:32:59.409Z,11.40
2024-02-10T10:35:33.590Z,11.70
2024-02-10T10:38:08.072Z,11.20
2024-02-10T10:40:40.891Z,10.50
2024-02-10T10:43:16.458Z,11.70
2024-02-10T10:48:20.479Z,26.10
2024-02-10T10:50:58.143Z,92.90
2024-02-10T10:53:32.841Z,56.30
2024-02-10T10:56:09.969Z,26.90
2024-02-10T10:58:47.899Z,34.40
2024-02-10T11:01:22.839Z,24.90
2024-02-10T11:04:03.296Z,57.50
2024-02-10T11:06:37.369Z,68.60
2024-02-10T11:09:10.915Z,102.10
2024-02-10T11:11:47.345Z,83.10
2024-02-10T11:14:19.530Z,67.40
2024-02-10T11:16:53.336Z,56.30
2024-02-10T11:19:26.136Z,40.50
2024-02-10T11:22:07.912Z,16.30
2024-02-10T11:24:47.228Z,28.00
2024-02-10T11:27:19.352Z,44.50
2024-02-10T11:29:59.699Z,79.10
2024-02-10T11:32:33.258Z,51.70
2024-02-10T11:35:05.639Z,21.30
2024-02-10T11:37:38.089Z,34.20
2024-02-10T11:40:17.135Z,18.20
2024-02-10T11:42:49.311Z,56.80
2024-02-10T11:45:21.308Z,21.10
2024-02-10T11:47:56.572Z,13.40
2024-02-10T11:50:28.586Z,14.90
2024-02-10T11:53:01.226Z,11.30
2024-02-10T11:55:34.820Z,13.50
2024-02-10T11:58:07.223Z,23.30
2024-02-10T12:00:39.750Z,14.10
2024-02-10T12:03:14.493Z,11.70
2024-02-10T12:05:48.625Z,12.50
2024-02-10T12:08:20.868Z,14.90
2024-02-10T12:10:53.136Z,17.00
2024-02-10T12:13:27.245Z,14.30
2024-02-10T12:16:03.265Z,19.10
2024-02-10T12:21:07.463Z,15.70
2024-02-10T12:23:40.825Z,15.10
2024-02-10T12:26:13.325Z,14.30
2024-02-10T12:28:45.701Z,10.90
2024-02-10T12:31:22.716Z,11.30
2024-02-10T12:33:56.433Z,10.70
2024-02-10T12:36:32.693Z,11.20
2024-02-10T12:39:06.994Z,9.50
2024-02-10T12:41:39.402Z,9.60
2024-02-10T12:44:12.385Z,9.40
2024-02-10T12:46:47.189Z,9.40
2024-02-10T12:49:19.981Z,10.40
2024-02-10T12:51:56.687Z,9.70
2024-02-10T12:54:29.410Z,9.20
2024-02-10T12:57:01.535Z,11.00
2024-02-10T12:59:35.016Z,13.00
2024-02-10T13:02:09.923Z,53.60
2024-02-10T13:04:46.800Z,120.60
2024-02-10T13:07:20.001Z,60.90
2024-02-10T13:09:52.186Z,37.00
2024-02-10T13:12:24.609Z,97.70
2024-02-10T13:14:56.571Z,339.80
2024-02-10T13:17:28.720Z,42.30
2024-02-10T13:20:01.133Z,15.30
2024-02-10T13:22:33.685Z,12.50
2024-02-10T13:25:06.785Z,9.60
2024-02-10T13:27:38.773Z,9.30
2024-02-10T13:30:15.638Z,8.10
2024-02-10T13:32:48.257Z,9.90
2024-02-10T13:35:23.433Z,8.30
2024-02-10T13:38:14.715Z,13.40
2024-02-10T13:41:04.767Z,8.10
2024-02-10T13:43:54.736Z,9.40
2024-02-10T13:46:44.836Z,14.60
2024-02-10T13:49:35.029Z,11.00
2024-02-10T13:52:24.728Z,11.00
2024-02-10T13:55:14.548Z,11.00
2024-02-10T13:58:03.996Z,11.00
2024-02-10T14:00:37.796Z,12.70
2024-02-10T14:03:13.326Z,11.80
2024-02-10T14:05:56.912Z,29.30
2024-02-10T14:08:49.769Z,13.90
2024-02-10T14:11:24.044Z,19.40
2024-02-10T14:13:57.378Z,13.60
2024-02-10T14:16:32.017Z,14.60
2024-02-10T14:19:07.424Z,21.00
2024-02-10T14:21:42.225Z,25.30
2024-02-10T14:24:17.468Z,13.60
2024-02-10T14:27:02.427Z,31.70
2024-02-10T14:29:37.780Z,29.20
2024-02-10T14:32:14.118Z,25.50
2024-02-10T14:35:00.260Z,24.60
2024-02-10T14:37:47.434Z,28.20
2024-02-10T14:40:33.010Z,19.40
2024-02-10T14:43:06.929Z,28.90
2024-02-10T14:45:41.521Z,21.70
2024-02-10T14:48:13.739Z,26.80
2024-02-10T14:50:46.090Z,23.10
2024-02-10T14:53:18.060Z,23.30
2024-02-10T14:55:50.100Z,25.60
2024-02-10T14:58:22.154Z,26.00
2024-02-10T15:00:55.639Z,53.00
2024-02-10T15:03:28.356Z,32.30
2024-02-10T15:06:00.436Z,37.70
2024-02-10T15:08:32.470Z,26.60
2024-02-10T15:11:04.541Z,146.00
2024-02-10T15:13:37.287Z,35.00
2024-02-10T15:16:09.903Z,28.10
2024-02-10T15:18:41.896Z,29.40
2024-02-10T15:21:14.889Z,27.80
2024-02-10T15:23:46.821Z,28.80
2024-02-10T15:26:19.015Z,54.50
2024-02-10T15:28:53.417Z,220.90
2024-02-10T15:31:27.302Z,379.70
2024-02-10T15:33:59.790Z,242.40
2024-02-10T15:36:57.580Z,60.00
2024-02-10T15:39:29.622Z,71.00
2024-02-10T15:42:01.631Z,144.70
2024-02-10T15:44:33.647Z,103.50
2024-02-10T15:47:05.911Z,112.20
2024-02-10T15:49:37.912Z,84.10
2024-02-10T15:52:10.566Z,91.00
2024-02-10T15:54:44.153Z,50.50
2024-02-10T15:57:16.246Z,39.70
2024-02-10T15:59:48.385Z,81.40
2024-02-10T16:02:20.835Z,45.40
2024-02-10T16:04:54.410Z,41.40
2024-02-10T16:07:26.463Z,47.70
2024-02-10T16:09:58.584Z,58.60
2024-02-10T16:12:30.682Z,51.40
2024-02-10T16:15:02.750Z,49.00
2024-02-10T16:17:38.759Z,49.00
2024-02-10T16:20:13.877Z,55.80
2024-02-10T16:22:45.954Z,54.90
2024-02-10T16:25:18.109Z,60.60
2024-02-10T16:27:54.236Z,44.90
2024-02-10T16:30:28.854Z,50.00
2024-02-10T16:33:01.032Z,72.60
2024-02-10T16:35:33.219Z,83.10
2024-02-10T16:38:10.369Z,46.90
2024-02-10T16:40:44.055Z,40.20
2024-02-10T16:43:18.137Z,44.00
2024-02-10T16:45:50.264Z,43.20
2024-02-10T16:48:22.232Z,48.70
2024-02-10T16:50:55.892Z,47.60
2024-02-10T16:53:28.974Z,45.80
2024-02-10T16:56:02.382Z,50.90
2024-02-10T16:58:34.548Z,85.80
2024-02-10T17:01:07.051Z,58.60
2024-02-10T17:03:39.134Z,46.60
2024-02-10T17:06:13.945Z,47.60
2024-02-10T17:08:46.598Z,48.90
2024-02-10T17:11:18.886Z,58.00
2024-02-10T17:13:53.443Z,55.60
2024-02-10T17:16:25.957Z,45.60
2024-02-10T17:19:01.067Z,47.70
2024-02-10T17:21:34.825Z,42.10
2024-02-10T17:24:08.374Z,43.10
2024-02-10T17:26:40.510Z,60.90
2024-02-10T17:29:12.950Z,61.60
2024-02-10T17:31:50.975Z,45.50
2024-02-10T17:34:23.716Z,47.90
2024-02-10T17:36:55.788Z,56.50
2024-02-10T17:39:27.686Z,45.50
2024-02-10T17:41:59.854Z,47.10
2024-02-10T17:44:33.375Z,45.10
2024-02-10T17:47:05.678Z,44.00
2024-02-10T17:49:45.533Z,41.80
2024-02-10T17:52:19.137Z,38.80
2024-02-10T17:54:52.827Z,39.00
2024-02-10T17:57:25.016Z,38.50
2024-02-10T18:00:00.078Z,37.40
2024-02-10T18:02:32.544Z,41.00
2024-02-10T18:05:05.742Z,41.00
2024-02-10T18:07:37.853Z,40.70
2024-02-10T18:10:11.252Z,45.00
2024-02-10T18:12:43.269Z,43.40
2024-02-10T18:15:15.743Z,39.90
2024-02-10T18:17:49.512Z,39.10
2024-02-10T18:20:21.920Z,37.80
2024-02-10T18:22:56.707Z,39.00
2024-02-10T18:25:28.811Z,37.20
2024-02-10T18:28:03.342Z,39.40
2024-02-10T18:30:35.329Z,39.30
2024-02-10T18:33:07.792Z,40.00
2024-02-10T18:35:40.366Z,41.50
2024-02-10T18:38:13.114Z,42.80
2024-02-10T18:40:45.957Z,38.70
2024-02-10T18:43:18.041Z,42.30
2024-02-10T18:45:50.049Z,44.00
2024-02-10T18:48:22.266Z,42.90
2024-02-10T18:50:54.225Z,40.80
2024-02-10T18:53:26.317Z,38.30
2024-02-10T18:56:00.591Z,38.40
2024-02-10T18:58:32.809Z,38.40
2024-02-10T19:01:05.960Z,40.10
2024-02-10T19:03:37.999Z,38.50
2024-02-10T19:06:11.483Z,38.30
2024-02-10T19:08:43.498Z,38.20
2024-02-10T19:11:15.547Z,40.10
2024-02-10T19:13:47.813Z,37.20
2024-02-10T19:16:19.896Z,38.60
2024-02-10T19:18:52.795Z,37.90
2024-02-10T19:21:25.185Z,37.90
2024-02-10T19:23:59.223Z,37.20
2024-02-10T19:26:31.539Z,35.90
2024-02-10T19:29:04.114Z,35.40
2024-02-10T19:31:41.364Z,40.90
2024-02-10T19:34:15.826Z,37.00
2024-02-10T19:36:47.777Z,35.80
2024-02-10T19:39:20.632Z,36.20
2024-02-10T19:41:56.000Z,35.10
2024-02-10T19:44:29.230Z,36.60
2024-02-10T19:47:01.210Z,35.90
2024-02-10T19:49:34.533Z,36.30
2024-02-10T19:52:07.438Z,37.80
2024-02-10T19:54:40.554Z,36.50
2024-02-10T19:57:12.993Z,37.50
2024-02-10T19:59:51.760Z,38.20
2024-02-10T20:02:24.083Z,39.40
2024-02-10T20:04:56.102Z,41.10
2024-02-10T20:07:32.392Z,36.70
2024-02-10T20:10:04.772Z,37.10
2024-02-10T20:12:39.629Z,37.10
2024-02-10T20:15:14.424Z,36.00
2024-02-10T20:17:52.680Z,36.40
2024-02-10T20:20:39.186Z,37.80
2024-02-10T20:23:15.515Z,37.60
2024-02-10T20:25:47.701Z,36.90
2024-02-10T20:28:19.720Z,35.70
2024-02-10T20:30:52.080Z,36.40
2024-02-10T20:33:24.207Z,35.80
2024-02-10T20:35:57.083Z,35.90
2024-02-10T20:38:29.114Z,35.30
2024-02-10T20:41:01.189Z,36.60
2024-02-10T20:43:33.374Z,37.00
2024-02-10T20:46:29.228Z,38.00
2024-02-10T20:49:13.435Z,35.30
2024-02-10T20:51:48.133Z,36.30
2024-02-10T20:54:21.818Z,36.70
2024-02-10T20:56:54.414Z,37.10
2024-02-10T20:59:26.308Z,36.30
2024-02-10T21:01:58.364Z,35.20
2024-02-10T21:04:31.123Z,35.70
2024-02-10T21:07:03.255Z,34.80
2024-02-10T21:09:36.262Z,36.30
2024-02-10T21:12:11.086Z,34.50
2024-02-10T21:14:45.526Z,35.60
2024-02-10T21:17:17.850Z,33.60
2024-02-10T21:19:50.649Z,35.50
2024-02-10T21:22:22.790Z,35.00
2024-02-10T21:24:56.202Z,36.70
2024-02-10T21:27:30.993Z,34.80
2024-02-10T21:30:04.033Z,35.80
2024-02-10T21:32:36.051Z,35.10
2024-02-10T21:35:13.277Z,34.60
2024-02-10T21:37:46.659Z,34.10
2024-02-10T21:40:21.643Z,34.60
2024-02-10T21:43:03.494Z,34.60
2024-02-10T21:45:35.510Z,36.20
2024-02-10T21:48:09.858Z,35.30
2024-02-10T21:50:49.880Z,35.10
2024-02-10T21:53:27.766Z,37.40
2024-02-10T21:55:59.797Z,36.10
2024-02-10T21:58:31.821Z,36.10
2024-02-10T22:01:09.110Z,36.00
2024-02-10T22:03:41.153Z,56.40
2024-02-10T22:06:13.810Z,42.00
2024-02-10T22:08:46.035Z,50.10
2024-02-10T22:11:18.760Z,35.70
2024-02-10T22:13:50.886Z,38.30
2024-02-10T22:16:22.968Z,34.70
2024-02-10T22:18:55.107Z,34.60
2024-02-10T22:21:28.285Z,33.90
2024-02-10T22:24:00.909Z,36.80
2024-02-10T22:26:33.865Z,37.20
2024-02-10T22:29:05.787Z,37.90
2024-02-10T22:31:39.886Z,36.30
2024-02-10T22:34:12.375Z,35.70
2024-02-10T22:36:47.433Z,36.70
2024-02-10T22:39:26.367Z,36.50
2024-02-10T22:41:58.467Z,36.80
2024-02-10T22:44:30.540Z,39.20
2024-02-10T22:47:10.060Z,38.70
2024-02-10T22:49:47.068Z,40.50
2024-02-10T22:52:23.553Z,47.40
2024-02-10T22:54:56.224Z,53.80
2024-02-10T22:57:30.930Z,58.40
2024-02-10T23:00:04.806Z,49.40
2024-02-10T23:02:36.868Z,42.70
2024-02-10T23:05:10.002Z,48.50
2024-02-10T23:07:42.630Z,50.10
2024-02-10T23:10:14.969Z,97.60
2024-02-10T23:12:51.132Z,90.60
2024-02-10T23:17:56.745Z,151.00
2024-02-10T23:20:28.847Z,170.80
2024-02-10T23:23:03.418Z,102.90
2024-02-10T23:25:35.644Z,72.30
2024-02-10T23:28:12.041Z,65.20
2024-02-10T23:30:45.385Z,47.90
2024-02-10T23:33:17.483Z,47.30
2024-02-10T23:35:51.005Z,49.80
2024-02-10T23:38:27.969Z,51.10
2024-02-10T23:41:00.120Z,43.90
2024-02-10T23:43:32.143Z,44.30
2024-02-10T23:46:07.663Z,56.10
2024-02-10T23:48:40.033Z,44.70
2024-02-10T23:51:15.120Z,42.30
2024-02-10T23:53:47.511Z,41.70
2024-02-10T23:56:20.298Z,40.60
2024-02-10T23:58:53.640Z,40.70
